Time;durP1;ratioP1;P1;durP2;ratioP2;P2;SDS_P1;SDS_P2;PMS_P1;PMS_P2;Temp;Humidity;BMP_temperature;BMP_pressure;BME280_temperature;BME280_humidity;BME280_pressure;Samples;Min_cycle;Max_cycle;Signal;HPM_P1;HPM_P2
2024/02/12 00:00:32;;;;;;;;;;;;;;;5.80;100.00;97979.52;109464;1253;76242;-71
2024/02/12 00:03:00;;;;;;;;;;;;;;;5.94;100.00;97979.69;109468;1253;67303;-69
2024/02/12 00:05:27;;;;;;;;;;;;;;;5.94;100.00;97991.35;109530;1253;72635;-69
2024/02/12 00:07:55;;;;;;;;;;;;;;;5.98;100.00;97991.80;109441;1253;60272;-70
2024/02/12 00:10:23;;;;;;;;;;;;;;;6.02;100.00;97991.50;109485;1253;60726;-70
2024/02/12 00:12:52;;;;;;;;;;;;;;;5.98;100.00;97989.41;109450;1254;73661;-70
2024/02/12 00:15:21;;;;;;;;;;;;;;;6.01;100.00;97987.75;109529;1253;70819;-69
2024/02/12 00:17:49;;;;;;;;;;;;;;;6.06;100.00;97987.36;109517;1253;72552;-70
2024/02/12 00:20:17;;;;;;;;;;;;;;;5.96;100.00;97986.19;109133;1256;62213;-69
2024/02/12 00:22:44;;;;;;;;;;;;;;;5.91;100.00;97985.35;109395;1254;60858;-69
2024/02/12 00:25:12;;;;;;;;;;;;;;;5.89;100.00;97986.04;109385;1254;76464;-69
2024/02/12 00:27:41;;;;;;;;;;;;;;;5.92;100.00;97985.78;109355;1254;71058;-69
2024/02/12 00:30:09;;;;;;;;;;;;;;;5.95;100.00;97982.89;109394;1254;72801;-69
2024/02/12 00:32:36;;;;;;;;;;;;;;;6.00;100.00;97979.87;109372;1256;61962;-69
2024/02/12 00:35:05;;;;;;;;;;;;;;;6.00;100.00;97977.74;109311;1254;61414;-69
2024/02/12 00:37:34;;;;;;;;;;;;;;;6.01;100.00;97980.46;109433;1254;73215;-69
2024/02/12 00:40:09;;;;;;;;;;;;;;;6.09;100.00;97990.83;109408;1254;67289;-70
2024/02/12 00:42:38;;;;;;;;;;;;;;;6.06;100.00;97992.79;109378;1254;74944;-70
2024/02/12 00:45:07;;;;;;;;;;;;;;;6.07;100.00;97997.26;109389;1255;60929;-69
2024/02/12 00:47:36;;;;;;;;;;;;;;;6.09;100.00;97994.66;109390;1254;58944;-69
2024/02/12 00:50:06;;;;;;;;;;;;;;;6.12;100.00;97990.30;109438;1253;74618;-69
2024/02/12 00:52:35;;;;;;;;;;;;;;;6.18;100.00;97994.67;109437;1253;67958;-69
2024/02/12 00:55:04;;;;;;;;;;;;;;;6.12;100.00;97993.81;109433;1253;72491;-69
2024/02/12 00:57:31;;;;;;;;;;;;;;;6.13;100.00;97994.14;109265;1253;59228;-69
2024/02/12 00:59:59;;;;;;;;;;;;;;;6.18;100.00;97998.52;109453;1253;61598;-70
2024/02/12 01:02:27;;;;;;;;;;;;;;;6.19;100.00;97998.89;109043;1253;75616;-71
2024/02/12 01:04:56;;;;;;;;;;;;;;;6.16;100.00;98000.59;109450;1253;71092;-70
2024/02/12 01:07:25;;;;;;;;;;;;;;;6.17;100.00;98001.97;109304;1253;71913;-70
2024/02/12 01:09:52;;;;;;;;;;;;;;;6.17;100.00;98006.35;109468;1252;63134;-70
2024/02/12 01:12:20;;;;;;;;;;;;;;;6.20;100.00;98008.74;109561;1253;59224;-70
2024/02/12 01:14:47;;;;;;;;;;;;;;;6.18;100.00;98003.85;109584;1252;74834;-70
2024/02/12 01:17:15;;;;;;;;;;;;;;;6.23;100.00;97998.52;109609;1253;67742;-70
2024/02/12 01:19:44;;;;;;;;;;;;;;;6.17;100.00;97992.02;109615;1253;75278;-70
2024/02/12 01:22:12;;;;;;;;;;;;;;;6.10;100.00;97992.27;109608;1252;60436;-70
2024/02/12 01:24:40;;;;;;;;;;;;;;;6.06;100.00;97988.15;109574;1252;59235;-71
2024/02/12 01:27:08;;;;;;;;;;;;;;;6.09;100.00;97993.80;109639;1253;76905;-70
2024/02/12 01:29:38;;;;;;;;;;;;;;;6.06;100.00;97989.75;109604;1253;70320;-70
2024/02/12 01:32:07;;;;;;;;;;;;;;;6.18;100.00;97986.89;109350;1252;74086;-70
2024/02/12 01:34:34;;;;;;;;;;;;;;;5.99;100.00;97981.15;109491;1252;61300;-70
2024/02/12 01:37:02;;;;;;;;;;;;;;;5.98;100.00;97975.03;109608;1252;61924;-70
2024/02/12 01:39:29;;;;;;;;;;;;;;;6.04;100.00;97978.55;109589;1253;73987;-70
2024/02/12 01:41:57;;;;;;;;;;;;;;;5.98;100.00;97983.59;109618;1252;69410;-70
2024/02/12 01:44:26;;;;;;;;;;;;;;;5.97;100.00;97986.52;109601;1252;72965;-70
2024/02/12 01:46:55;;;;;;;;;;;;;;;6.01;100.00;97988.29;109572;1253;60572;-70
2024/02/12 01:49:23;;;;;;;;;;;;;;;5.99;100.00;97984.13;109548;1253;59083;-69
2024/02/12 01:51:50;;;;;;;;;;;;;;;6.03;100.00;97974.77;109496;1253;77106;-70
2024/02/12 01:54:18;;;;;;;;;;;;;;;6.02;100.00;97968.42;109437;1253;69463;-70
2024/02/12 01:56:46;;;;;;;;;;;;;;;6.07;100.00;97968.33;109452;1253;71345;-70
2024/02/12 01:59:19;;;;;;;;;;;;;;;5.94;100.00;97959.13;109403;1253;60737;-70
2024/02/12 02:01:47;;;;;;;;;;;;;;;5.87;100.00;97959.89;109452;1253;59070;-70
2024/02/12 02:04:16;;;;;;;;;;;;;;;5.96;100.00;97963.60;109487;1252;73212;-70
2024/02/12 02:06:50;;;;;;;;;;;;;;;5.89;100.00;97959.95;109492;1253;67356;-70
2024/02/12 02:09:18;;;;;;;;;;;;;;;5.86;100.00;97955.67;109352;1254;71392;-71
2024/02/12 02:11:45;;;;;;;;;;;;;;;5.91;100.00;97956.49;109277;1256;61956;-70
2024/02/12 02:14:13;;;;;;;;;;;;;;;5.94;100.00;97959.70;109329;1254;60330;-69
2024/02/12 02:16:41;;;;;;;;;;;;;;;5.90;100.00;97965.98;109315;1254;72589;-70
2024/02/12 02:19:09;;;;;;;;;;;;;;;5.87;100.00;97973.25;109300;1254;68632;-70
2024/02/12 02:21:37;;;;;;;;;;;;;;;5.94;100.00;97978.94;109050;1254;72556;-70
2024/02/12 02:24:05;;;;;;;;;;;;;;;5.99;100.00;97978.38;109253;1256;60967;-70
2024/02/12 02:26:34;;;;;;;;;;;;;;;6.02;100.00;97975.03;109287;1254;59011;-70
2024/02/12 02:29:01;;;;;;;;;;;;;;;5.97;100.00;97972.61;109327;1254;72598;-70
2024/02/12 02:31:31;;;;;;;;;;;;;;;5.80;100.00;97975.15;109308;1254;71063;-70
2024/02/12 02:33:59;;;;;;;;;;;;;;;5.86;100.00;97972.93;109305;1254;74009;-70
2024/02/12 02:36:27;;;;;;;;;;;;;;;5.97;100.00;97978.42;109013;1256;62326;-70
2024/02/12 02:38:55;;;;;;;;;;;;;;;6.02;100.00;97975.09;109050;1254;59294;-70
2024/02/12 02:41:24;;;;;;;;;;;;;;;5.90;100.00;97974.92;109494;1253;77127;-70
2024/02/12 02:43:52;;;;;;;;;;;;;;;5.82;100.00;97972.60;109618;1252;69903;-70
2024/02/12 02:46:28;;;;;;;;;;;;;;;5.92;100.00;97971.10;109558;1252;73089;-70
2024/02/12 02:48:56;;;;;;;;;;;;;;;6.00;100.00;97981.41;109153;1254;62013;-70
2024/02/12 02:51:27;;;;;;;;;;;;;;;5.88;100.00;97986.58;109429;1254;59594;-69
2024/02/12 02:53:54;;;;;;;;;;;;;;;5.82;100.00;97989.05;109443;1254;74635;-70
2024/02/12 02:56:22;;;;;;;;;;;;;;;5.85;100.00;97975.69;109454;1254;67839;-70
2024/02/12 02:58:50;;;;;;;;;;;;;;;5.84;100.00;97981.92;109406;1254;74288;-70
2024/02/12 03:01:20;;;;;;;;;;;;;;;5.93;100.00;97980.79;109430;1254;59626;-70
2024/02/12 03:03:50;;;;;;;;;;;;;;;5.84;100.00;97980.91;109446;1254;60731;-70
2024/02/12 03:06:18;;;;;;;;;;;;;;;5.71;100.00;97979.16;109468;1254;76609;-70
2024/02/12 03:08:49;;;;;;;;;;;;;;;5.83;100.00;97973.98;109283;1254;68457;-70
2024/02/12 03:11:18;;;;;;;;;;;;;;;5.90;100.00;97965.39;109404;1254;71552;-70
2024/02/12 03:13:46;;;;;;;;;;;;;;;5.95;100.00;97959.17;109396;1253;61147;-69
2024/02/12 03:16:13;;;;;;;;;;;;;;;5.98;100.00;97952.11;109466;1253;62099;-70
2024/02/12 03:18:41;;;;;;;;;;;;;;;5.98;100.00;97943.60;109461;1253;75076;-70
2024/02/12 03:21:09;;;;;;;;;;;;;;;6.09;100.00;97933.39;109435;1253;67004;-70
2024/02/12 03:23:37;;;;;;;;;;;;;;;6.02;100.00;97929.48;109440;1253;72711;-70
2024/02/12 03:26:08;;;;;;;;;;;;;;;6.01;100.00;97935.19;109423;1254;60844;-70
2024/02/12 03:28:37;;;;;;;;;;;;;;;5.88;100.00;97928.84;109429;1253;58911;-70
2024/02/12 03:31:04;;;;;;;;;;;;;;;5.93;100.00;97924.92;109448;1253;74745;-69
2024/02/12 03:33:32;;;;;;;;;;;;;;;6.04;100.00;97927.20;109409;1253;68352;-70
2024/02/12 03:36:00;;;;;;;;;;;;;;;6.03;100.00;97933.10;109410;1253;72021;-70
2024/02/12 03:38:28;;;;;;;;;;;;;;;6.16;100.00;97931.27;109427;1254;60270;-70
2024/02/12 03:40:55;;;;;;;;;;;;;;;6.15;100.00;97931.38;109489;1253;58893;-70
2024/02/12 03:43:24;;;;;;;;;;;;;;;6.19;100.00;97931.44;109214;1252;74833;-70
2024/02/12 03:45:55;;;;;;;;;;;;;;;6.10;100.00;97938.45;109449;1253;68591;-70
2024/02/12 04:02:13;;;;;;;;;;;;;;;6.06;100.00;97957.94;109513;1252;73249;-70
2024/02/12 04:04:41;;;;;;;;;;;;;;;6.08;100.00;97955.60;109223;1253;60150;-69
2024/02/12 04:07:09;;;;;;;;;;;;;;;6.14;100.00;97957.63;109436;1253;59723;-70
2024/02/12 04:09:41;;;;;;;;;;;;;;;6.16;100.00;97960.95;109282;1253;74054;-69
2024/02/12 04:12:11;;;;;;;;;;;;;;;6.16;100.00;97976.55;109432;1253;70602;-70
2024/02/12 04:14:40;;;;;;;;;;;;;;;6.15;100.00;97981.56;109553;1253;70477;-70
2024/02/12 04:17:09;;;;;;;;;;;;;;;6.13;100.00;97980.55;109646;1252;59510;-69
2024/02/12 04:19:37;;;;;;;;;;;;;;;6.16;100.00;97974.33;109581;1253;59042;-69
2024/02/12 04:22:09;;;;;;;;;;;;;;;6.19;100.00;97963.67;109632;1253;76511;-69
2024/02/12 04:24:40;;;;;;;;;;;;;;;6.10;100.00;97960.46;109607;1253;70678;-70
2024/02/12 04:27:09;;;;;;;;;;;;;;;6.11;100.00;97957.58;109626;1252;72684;-69
2024/02/12 04:29:38;;;;;;;;;;;;;;;5.99;100.00;97948.98;109615;1252;61280;-70
2024/02/12 04:32:15;;;;;;;;;;;;;;;5.99;100.00;97938.06;109579;1253;62181;-70
2024/02/12 04:34:43;;;;;;;;;;;;;;;5.99;100.00;97942.11;109598;1253;75974;-70
2024/02/12 04:37:11;;;;;;;;;;;;;;;6.05;100.00;97943.19;109630;1252;67848;-70
2024/02/12 04:39:38;;;;;;;;;;;;;;;6.09;100.00;97948.04;109572;1252;74205;-70
2024/02/12 04:42:06;;;;;;;;;;;;;;;6.07;100.00;97954.55;109550;1253;61719;-70
2024/02/12 04:44:33;;;;;;;;;;;;;;;6.02;100.00;97948.83;109580;1253;59333;-70
2024/02/12 04:47:02;;;;;;;;;;;;;;;5.97;100.00;97950.46;109634;1252;73748;-70
2024/02/12 04:49:31;;;;;;;;;;;;;;;5.93;100.00;97951.93;109490;1253;71019;-70
2024/02/12 04:51:59;;;;;;;;;;;;;;;6.06;100.00;97956.66;109329;1254;73208;-70
2024/02/12 04:54:26;;;;;;;;;;;;;;;6.02;100.00;97959.85;109431;1254;60820;-70
2024/02/12 04:56:54;;;;;;;;;;;;;;;5.99;100.00;97964.58;109346;1254;59255;-70
2024/02/12 04:59:22;;;;;;;;;;;;;;;5.97;100.00;97966.98;109378;1254;74008;-70
2024/02/12 05:01:50;;;;;;;;;;;;;;;5.99;100.00;97981.58;109286;1255;68370;-70
2024/02/12 05:04:17;;;;;;;;;;;;;;;6.00;100.00;97984.77;109159;1254;73623;-70
2024/02/12 05:06:45;;;;;;;;;;;;;;;6.10;100.00;97982.73;109351;1254;59834;-70
2024/02/12 05:09:13;;;;;;;;;;;;;;;6.09;100.00;97980.97;109354;1254;59402;-70
2024/02/12 05:11:40;;;;;;;;;;;;;;;6.02;100.00;97977.27;109536;1253;76964;-70
2024/02/12 05:14:08;;;;;;;;;;;;;;;5.90;100.00;97975.28;109245;1253;68517;-70
2024/02/12 05:16:37;;;;;;;;;;;;;;;5.86;100.00;97979.43;109420;1253;74942;-70
2024/02/12 05:24:37;;;;;;;;;;;;;;;5.86;100.00;97985.98;109545;1253;74871;-70
2024/02/12 05:27:05;;;;;;;;;;;;;;;5.96;100.00;97990.84;109438;1253;68849;-70
2024/02/12 05:29:32;;;;;;;;;;;;;;;5.97;100.00;97985.45;109445;1253;73270;-70
2024/02/12 05:32:00;;;;;;;;;;;;;;;5.88;100.00;97982.91;109389;1253;59014;-69
2024/02/12 05:34:27;;;;;;;;;;;;;;;5.84;100.00;97980.05;109485;1253;60964;-70
2024/02/12 05:36:55;;;;;;;;;;;;;;;5.80;100.00;97975.63;109392;1253;76902;-70
2024/02/12 05:39:22;;;;;;;;;;;;;;;5.73;100.00;97967.77;109458;1253;68066;-69
2024/02/12 05:41:51;;;;;;;;;;;;;;;5.72;100.00;97964.04;109420;1258;71861;-70
2024/02/12 05:44:18;;;;;;;;;;;;;;;5.79;100.00;97965.19;109486;1253;61956;-69
2024/02/12 05:46:46;;;;;;;;;;;;;;;5.71;100.00;97965.38;109466;1253;58932;-70
2024/02/12 05:49:21;;;;;;;;;;;;;;;5.71;100.00;97967.52;109534;1253;72743;-69
2024/02/12 05:51:49;;;;;;;;;;;;;;;5.77;100.00;97969.55;109576;1253;70161;-69
2024/02/12 05:54:16;;;;;;;;;;;;;;;5.78;100.00;97970.73;109367;1253;73206;-69
2024/02/12 05:56:44;;;;;;;;;;;;;;;5.81;100.00;97967.01;109446;1253;61948;-70
2024/02/12 05:59:15;;;;;;;;;;;;;;;5.87;100.00;97970.76;109529;1253;59715;-69
2024/02/12 06:01:43;;;;;;;;;;;;;;;5.88;100.00;97971.30;109172;1253;75991;-70
2024/02/12 06:04:10;;;;;;;;;;;;;;;5.88;100.00;97969.16;109523;1253;70677;-70
2024/02/12 06:06:38;;;;;;;;;;;;;;;5.95;100.00;97971.49;109140;1253;75035;-71
2024/02/12 06:09:06;;;;;;;;;;;;;;;5.99;100.00;97977.79;109480;1253;60553;-72
2024/02/12 06:11:34;;;;;;;;;;;;;;;5.97;100.00;97984.65;109122;1254;60948;-68
2024/02/12 06:14:01;;;;;;;;;;;;;;;5.99;100.00;97982.90;109459;1253;75291;-68
2024/02/12 06:16:29;;;;;;;;;;;;;;;5.98;100.00;97983.27;109442;1253;68682;-72
2024/02/12 06:18:57;;;;;;;;;;;;;;;5.86;100.00;97976.45;109515;1253;74077;-71
2024/02/12 06:21:24;;;;;;;;;;;;;;;5.86;100.00;97982.99;109423;1258;63466;-70
2024/02/12 06:23:52;;;;;;;;;;;;;;;5.87;100.00;97982.52;109557;1253;62123;-71
2024/02/12 06:26:19;;;;;;;;;;;;;;;5.92;100.00;97980.52;109453;1253;76951;-69
2024/02/12 06:28:49;;;;;;;;;;;;;;;5.90;100.00;97986.36;109474;1253;69698;-70
2024/02/12 06:31:17;;;;;;;;;;;;;;;5.93;100.00;97982.13;109457;1254;71839;-69
2024/02/12 06:33:45;;;;;;;;;;;;;;;6.02;100.00;97984.14;109425;1256;62474;-70
2024/02/12 06:36:13;;;;;;;;;;;;;;;5.99;100.00;97989.99;109489;1253;60425;-70
2024/02/12 06:38:40;;;;;;;;;;;;;;;5.96;100.00;97996.54;109423;1253;75368;-70
2024/02/12 06:41:08;;;;;;;;;;;;;;;6.00;100.00;97993.19;109324;1257;67249;-70
2024/02/12 06:43:36;;;;;;;;;;;;;;;5.93;100.00;97992.73;109241;1256;74653;-70
2024/02/12 06:46:03;;;;;;;;;;;;;;;5.85;100.00;97990.61;109042;1256;60515;-70
2024/02/12 06:48:32;;;;;;;;;;;;;;;5.79;100.00;97986.91;109255;1254;60264;-70
2024/02/12 06:51:08;;;;;;;;;;;;;;;5.71;100.00;97983.90;109259;1257;74745;-70
2024/02/12 06:53:36;;;;;;;;;;;;;;;5.78;100.00;97979.23;109274;1254;70093;-70
2024/02/12 06:56:04;;;;;;;;;;;;;;;5.82;100.00;97984.48;109354;1254;73192;-70
2024/02/12 06:58:32;;;;;;;;;;;;;;;5.87;100.00;97986.36;109255;1254;59855;-70
2024/02/12 07:00:59;;;;;;;;;;;;;;;5.91;100.00;97987.90;109279;1254;59312;-70
2024/02/12 07:03:28;;;;;;;;;;;;;;;5.97;100.00;97987.74;109133;1258;74670;-70
2024/02/12 07:05:56;;;;;;;;;;;;;;;5.92;100.00;97989.80;109270;1256;66438;-71
2024/02/12 07:08:24;;;;;;;;;;;;;;;5.90;100.00;97993.19;109275;1256;73135;-70
2024/02/12 07:10:52;;;;;;;;;;;;;;;5.99;100.00;97994.47;109314;1256;60889;-70
2024/02/12 07:13:20;;;;;;;;;;;;;;;6.06;100.00;97998.90;109453;1253;59948;-70
2024/02/12 07:15:47;;;;;;;;;;;;;;;5.89;100.00;98000.85;109505;1253;76027;-70
2024/02/12 07:18:14;;;;;;;;;;;;;;;5.87;100.00;97998.02;109341;1253;68289;-70
2024/02/12 07:20:43;;;;;;;;;;;;;;;5.97;100.00;97995.90;109134;1253;72126;-71
2024/02/12 07:23:10;;;;;;;;;;;;;;;5.99;100.00;97998.84;109406;1257;60962;-70
2024/02/12 07:25:38;;;;;;;;;;;;;;;6.01;100.00;97993.89;109440;1253;60932;-70
2024/02/12 07:28:06;;;;;;;;;;;;;;;6.07;100.00;97990.17;109269;1253;74037;-70
2024/02/12 07:30:33;;;;;;;;;;;;;;;6.18;100.00;97984.28;109234;1259;69383;-70
2024/02/12 07:33:03;;;;;;;;;;;;;;;6.15;100.00;97987.69;109398;1253;73462;-70
2024/02/12 07:35:31;;;;;;;;;;;;;;;6.18;100.00;97986.37;109430;1253;62200;-70
2024/02/12 07:37:58;;;;;;;;;;;;;;;6.34;100.00;97987.67;109448;1258;60803;-71
2024/02/12 07:40:26;;;;;;;;;;;;;;;6.38;100.00;97986.52;109452;1254;73957;-71
2024/02/12 07:42:54;;;;;;;;;;;;;;;6.36;100.00;97990.98;109439;1253;70345;-70
2024/02/12 07:45:22;;;;;;;;;;;;;;;6.55;100.00;97996.66;109445;1253;71153;-70
2024/02/12 07:47:49;;;;;;;;;;;;;;;6.61;100.00;97994.91;109462;1254;59985;-70
2024/02/12 07:50:17;;;;;;;;;;;;;;;6.65;100.00;97992.29;109600;1254;60458;-69
2024/02/12 07:52:45;;;;;;;;;;;;;;;6.71;100.00;97994.17;109603;1254;74094;-69
2024/02/12 07:55:13;;;;;;;;;;;;;;;6.85;100.00;97998.86;109566;1252;69892;-70
2024/02/12 07:57:40;;;;;;;;;;;;;;;6.68;100.00;97997.46;109574;1253;71279;-69
2024/02/12 08:00:14;;;;;;;;;;;;;;;6.57;100.00;98003.32;109548;1252;61419;-69
2024/02/12 08:02:44;;;;;;;;;;;;;;;6.73;100.00;98004.23;109635;1253;59674;-70
2024/02/12 08:05:14;;;;;;;;;;;;;;;6.80;100.00;98003.17;109294;1254;75327;-70
2024/02/12 08:07:43;;;;;;;;;;;;;;;6.86;100.00;98000.83;109116;1254;68022;-70
2024/02/12 08:10:28;;;;;;;;;;;;;;;6.83;100.00;98004.46;109549;1253;73141;-70
2024/02/12 08:12:56;;;;;;;;;;;;;;;6.89;100.00;98007.44;109581;1253;60202;-70
2024/02/12 08:15:24;;;;;;;;;;;;;;;6.96;100.00;98002.96;109285;1253;58964;-70
2024/02/12 08:17:54;;;;;;;;;;;;;;;7.09;100.00;97998.62;109605;1253;72716;-70
2024/02/12 08:20:24;;;;;;;;;;;;;;;7.16;100.00;98005.50;109555;1253;69143;-70
2024/02/12 08:22:54;;;;;;;;;;;;;;;7.20;100.00;98002.92;109588;1252;72492;-70
2024/02/12 08:25:21;;;;;;;;;;;;;;;7.28;100.00;98011.24;109601;1253;60196;-71
2024/02/12 08:27:49;;;;;;;;;;;;;;;7.36;100.00;98013.31;109590;1252;59028;-70
2024/02/12 08:30:17;;;;;;;;;;;;;;;7.16;100.00;98015.80;109656;1252;74578;-70
2024/02/12 08:32:45;;;;;;;;;;;;;;;7.10;100.00;98012.34;109630;1254;67608;-70
2024/02/12 08:35:13;;;;;;;;;;;;;;;7.23;100.00;98004.96;109617;1253;74090;-69
2024/02/12 08:37:40;;;;;;;;;;;;;;;7.35;100.00;98003.70;109285;1254;63151;-69
2024/02/12 08:40:10;;;;;;;;;;;;;;;7.49;100.00;98004.67;109544;1254;60431;-71
2024/02/12 08:42:41;;;;;;;;;;;;;;;7.62;100.00;98007.27;109558;1254;74678;-70
2024/02/12 08:45:10;;;;;;;;;;;;;;;7.64;100.00;98010.73;109387;1253;70373;-70
2024/02/12 08:47:37;;;;;;;;;;;;;;;7.59;100.00;98012.45;109364;1254;74993;-70
2024/02/12 08:50:06;;;;;;;;;;;;;;;7.55;100.00;98014.34;109257;1254;59754;-70
2024/02/12 08:52:33;;;;;;;;;;;;;;;7.46;100.00;98014.73;109182;1255;60455;-70
2024/02/12 08:55:06;;;;;;;;;;;;;;;7.27;100.00;98019.30;109343;1254;74402;-70
2024/02/12 08:57:34;;;;;;;;;;;;;;;7.35;100.00;98007.50;109283;1254;70257;-69
2024/02/12 09:00:03;;;;;;;;;;;;;;;7.37;100.00;98005.04;109271;1254;71380;-69
2024/02/12 09:02:31;;;;;;;;;;;;;;;7.64;100.00;98007.58;109368;1254;62217;-69
2024/02/12 09:04:59;;;;;;;;;;;;;;;7.71;100.00;98002.76;109358;1255;59889;-69
2024/02/12 09:07:27;;;;;;;;;;;;;;;7.78;100.00;97998.14;109299;1254;72875;-69
2024/02/12 09:09:54;;;;;;;;;;;;;;;7.77;100.00;97994.08;109324;1254;68414;-69
2024/02/12 09:12:22;;;;;;;;;;;;;;;7.74;100.00;97987.61;109382;1254;72636;-69
2024/02/12 09:14:57;;;;;;;;;;;;;;;7.82;100.00;97985.89;109541;1252;59410;-69
2024/02/12 09:17:25;;;;;;;;;;;;;;;7.87;100.00;97983.88;109574;1252;58869;-69
2024/02/12 09:19:56;;;;;;;;;;;;;;;7.88;100.00;97985.64;109504;1254;75918;-70
2024/02/12 09:22:24;;;;;;;;;;;;;;;8.01;100.00;97983.40;109650;1254;67183;-70
2024/02/12 09:24:51;;;;;;;;;;;;;;;8.16;100.00;97984.65;109614;1252;73676;-70
2024/02/12 09:27:19;;;;;;;;;;;;;;;7.89;100.00;97984.19;109638;1256;59702;-69
2024/02/12 09:29:47;;;;;;;;;;;;;;;7.73;100.00;97985.80;109625;1253;59806;-69
2024/02/12 09:32:15;;;;;;;;;;;;;;;7.56;100.00;97982.61;109650;1254;73590;-70
2024/02/12 09:34:42;;;;;;;;;;;;;;;7.85;100.00;97983.04;109615;1254;67813;-69
2024/02/12 09:37:10;;;;;;;;;;;;;;;8.06;100.00;97983.67;109609;1254;72772;-69
2024/02/12 09:39:37;;;;;;;;;;;;;;;8.24;100.00;97983.16;109612;1256;61406;-69
2024/02/12 09:42:05;;;;;;;;;;;;;;;8.30;100.00;97980.13;109586;1254;59177;-70
2024/02/12 09:44:32;;;;;;;;;;;;;;;8.33;100.00;97979.63;109591;1254;72981;-69
2024/02/12 09:47:04;;;;;;;;;;;;;;;8.35;100.00;97980.20;109274;1254;71128;-70
2024/02/12 09:49:32;;;;;;;;;;;;;;;8.32;100.00;97981.23;109570;1254;72161;-70
2024/02/12 09:52:00;;;;;;;;;;;;;;;8.18;100.00;97982.76;109411;1255;59006;-70
2024/02/12 09:54:27;;;;;;;;;;;;;;;8.29;100.00;97984.30;109223;1253;59072;-70
2024/02/12 09:56:57;;;;;;;;;;;;;;;8.24;100.00;97984.77;109426;1253;74099;-68
2024/02/12 09:59:25;;;;;;;;;;;;;;;8.30;100.00;97981.77;109409;1253;70671;-69
2024/02/12 10:01:52;;;;;;;;;;;;;;;8.30;100.00;97981.73;109289;1255;70723;-69
2024/02/12 10:04:20;;;;;;;;;;;;;;;8.31;100.00;97983.48;109436;1253;61775;-68
2024/02/12 10:06:56;;;;;;;;;;;;;;;8.22;100.00;97981.94;109423;1254;62120;-68
2024/02/12 10:09:24;;;;;;;;;;;;;;;8.08;100.00;97975.70;109458;1254;73933;-69
2024/02/12 10:11:51;;;;;;;;;;;;;;;7.99;100.00;97974.63;109634;1253;67431;-70
2024/02/12 10:14:31;;;;;;;;;;;;;;;8.00;100.00;97973.35;109596;1253;71439;-70
2024/02/12 10:17:02;;;;;;;;;;;;;;;7.84;100.00;97970.59;109622;1253;59549;-69
2024/02/12 10:19:30;;;;;;;;;;;;;;;7.87;100.00;97968.65;109585;1253;61943;-69
2024/02/12 10:21:58;;;;;;;;;;;;;;;8.14;100.00;97970.65;109616;1254;75200;-70
2024/02/12 10:24:27;;;;;;;;;;;;;;;8.21;100.00;97975.31;109597;1252;70609;-69
2024/02/12 10:26:54;;;;;;;;;;;;;;;8.12;100.00;97973.64;109618;1253;73189;-69
2024/02/12 10:29:22;;;;;;;;;;;;;;;8.20;100.00;97982.33;109561;1254;62309;-68
2024/02/12 10:31:49;;;;;;;;;;;;;;;8.17;100.00;97982.66;109639;1256;59747;-70
2024/02/12 10:34:18;;;;;;;;;;;;;;;8.10;100.00;97982.55;109605;1253;75299;-70
2024/02/12 10:36:47;;;;;;;;;;;;;;;8.17;100.00;97984.58;109588;1256;67568;-69
2024/02/12 10:39:16;;;;;;;;;;;;;;;8.19;100.00;97984.26;109632;1252;72768;-69
2024/02/12 10:41:45;;;;;;;;;;;;;;;8.20;100.00;97982.92;109527;1258;62207;-69
2024/02/12 10:44:19;;;;;;;;;;;;;;;8.11;100.00;97977.19;109590;1255;60652;-69
2024/02/12 10:46:46;;;;;;;;;;;;;;;8.27;100.00;97977.73;109616;1253;73198;-69
2024/02/12 10:49:17;;;;;;;;;;;;;;;8.28;100.00;97982.34;109576;1253;71117;-69
2024/02/12 10:51:44;;;;;;;;;;;;;;;8.32;100.00;97978.79;109420;1254;75032;-69
2024/02/12 10:54:12;;;;;;;;;;;;;;;8.32;100.00;97977.77;109309;1254;60624;-70
2024/02/12 10:56:40;;;;;;;;;;;;;;;8.41;100.00;97975.59;109472;1253;60381;-68
2024/02/12 10:59:13;;;;;;;;;;;;;;;8.59;100.00;97970.86;109472;1254;76693;-70
2024/02/12 11:01:43;;;;;;;;;;;;;;;8.66;100.00;97966.98;109450;1254;70781;-70
2024/02/12 11:04:16;;;;;;;;;;;;;;;8.76;100.00;97962.16;109439;1254;73025;-70
2024/02/12 11:06:46;;;;;;;;;;;;;;;8.95;100.00;97968.38;109415;1254;62726;-69
2024/02/12 11:09:14;;;;;;;;;;;;;;;8.64;100.00;97970.93;109419;1254;62108;-69
2024/02/12 11:11:42;;;;;;;;;;;;;;;8.80;100.00;97967.11;109449;1254;74654;-69
2024/02/12 11:14:12;;;;;;;;;;;;;;;8.91;100.00;97967.73;109373;1254;68196;-69
2024/02/12 11:16:39;;;;;;;;;;;;;;;8.85;100.00;97962.09;109370;1254;75010;-70
2024/02/12 11:19:13;;;;;;;;;;;;;;;8.86;100.00;97960.27;109076;1255;60718;-69
2024/02/12 11:21:52;;;;;;;;;;;;;;;8.80;100.00;97954.48;109373;1254;58988;-70
2024/02/12 11:24:20;;;;;;;;;;;;;;;8.86;100.00;97954.86;109409;1254;72813;-68
2024/02/12 11:26:51;;;;;;;;;;;;;;;8.77;100.00;97957.08;109143;1254;70786;-69
2024/02/12 11:29:19;;;;;;;;;;;;;;;8.81;100.00;97957.73;109231;1254;74901;-69
2024/02/12 11:31:47;;;;;;;;;;;;;;;8.86;100.00;97957.92;109018;1254;61247;-70
2024/02/12 11:34:18;;;;;;;;;;;;;;;8.89;100.00;97955.43;109385;1254;59400;-71
2024/02/12 11:36:58;;;;;;;;;;;;;;;8.97;100.00;97948.88;109413;1254;76492;-70
2024/02/12 11:39:25;;;;;;;;;;;;;;;9.09;100.00;97945.92;109261;1260;69999;-69
2024/02/12 11:41:53;;;;;;;;;;;;;;;9.13;100.00;97941.44;109151;1253;73670;-69
2024/02/12 11:44:21;;;;;;;;;;;;;;;9.26;100.00;97942.01;109582;1254;60964;-69
2024/02/12 11:46:55;;;;;;;;;;;;;;;9.40;100.00;97940.45;109604;1254;59041;-69
2024/02/12 11:49:22;;;;;;;;;;;;;;;9.55;100.00;97947.62;109549;1254;75220;-69
2024/02/12 11:51:51;;;;;;;;;;;;;;;9.43;100.00;97945.34;109430;1254;69729;-69
2024/02/12 11:54:19;;;;;;;;;;;;;;;9.35;100.00;97940.89;109484;1253;72948;-69
2024/02/12 11:56:46;;;;;;;;;;;;;;;9.34;100.00;97937.95;109308;1254;61416;-70
2024/02/12 11:59:14;;;;;;;;;;;;;;;9.32;100.00;97940.02;109286;1254;59399;-69
2024/02/12 12:01:42;;;;;;;;;;;;;;;9.53;100.00;97940.21;109468;1254;74302;-69
2024/02/12 12:04:11;;;;;;;;;;;;;;;9.55;100.00;97942.52;109435;1254;69257;-69
2024/02/12 12:06:38;;;;;;;;;;;;;;;9.50;100.00;97942.27;109431;1253;73176;-69
2024/02/12 12:09:06;;;;;;;;;;;;;;;9.54;100.00;97940.98;109403;1254;62560;-71
2024/02/12 12:11:34;;;;;;;;;;;;;;;9.44;100.00;97937.04;109610;1253;59911;-71
2024/02/12 12:14:02;;;;;;;;;;;;;;;9.35;100.00;97935.75;109580;1253;74370;-70
2024/02/12 12:16:30;;;;;;;;;;;;;;;9.30;100.00;97931.94;109644;1254;70931;-71
2024/02/12 12:19:04;;;;;;;;;;;;;;;9.29;100.00;97928.91;109575;1253;72379;-70
2024/02/12 12:21:34;;;;;;;;;;;;;;;9.31;100.00;97930.05;109403;1254;62328;-71
2024/02/12 12:24:02;;;;;;;;;;;;;;;9.30;100.00;97921.13;109561;1254;58989;-70
2024/02/12 12:26:30;;;;;;;;;;;;;;;9.41;100.00;97918.97;109381;1253;75259;-70
2024/02/12 12:28:59;;;;;;;;;;;;;;;9.39;100.00;97916.52;109379;1259;67623;-70
2024/02/12 12:31:32;;;;;;;;;;;;;;;9.40;100.00;97917.70;109392;1254;72708;-70
2024/02/12 12:34:00;;;;;;;;;;;;;;;9.36;100.00;97916.77;109351;1256;60173;-69
2024/02/12 12:36:30;;;;;;;;;;;;;;;9.44;100.00;97923.54;109146;1254;60929;-70
2024/02/12 12:38:58;;;;;;;;;;;;;;;9.57;100.00;97923.70;109408;1253;73959;-70
2024/02/12 12:41:26;;;;;;;;;;;;;;;9.49;100.00;97922.77;109223;1257;68938;-70
2024/02/12 12:43:53;;;;;;;;;;;;;;;9.39;100.00;97921.95;109082;1257;72180;-71
2024/02/12 12:46:22;;;;;;;;;;;;;;;9.47;100.00;97921.95;109123;1257;59697;-70
2024/02/12 12:48:50;;;;;;;;;;;;;;;9.45;100.00;97923.48;109084;1257;58905;-70
2024/02/12 12:51:18;;;;;;;;;;;;;;;9.35;100.00;97927.88;109003;1260;75201;-71
2024/02/12 12:53:46;;;;;;;;;;;;;;;9.33;100.00;97925.85;109045;1258;67088;-70
2024/02/12 12:56:13;;;;;;;;;;;;;;;9.25;100.00;97928.26;108915;1257;74007;-70
2024/02/12 12:58:41;;;;;;;;;;;;;;;9.22;100.00;97930.63;109115;1257;63094;-70
2024/02/12 13:01:10;;;;;;;;;;;;;;;9.29;100.00;97930.56;109017;1257;61899;-70